sensor_id;sensor_type;location;lat;lon;timestamp;temperature;humidity
14555;DHT22;7364;50.870;4.722;2023-07-08T00:01:27;23.10;77.80
14555;DHT22;7364;50.870;4.722;2023-07-08T00:03:55;23.20;78.20
14555;DHT22;7364;50.870;4.722;2023-07-08T00:06:27;23.20;78.20
14555;DHT22;7364;50.870;4.722;2023-07-08T00:08:55;23.10;78.30
14555;DHT22;7364;50.870;4.722;2023-07-08T00:11:23;23.00;78.30
14555;DHT22;7364;50.870;4.722;2023-07-08T00:13:52;22.90;79.60
14555;DHT22;7364;50.870;4.722;2023-07-08T00:16:23;22.80;80.50
14555;DHT22;7364;50.870;4.722;2023-07-08T00:18:57;22.80;81.00
14555;DHT22;7364;50.870;4.722;2023-07-08T00:21:28;22.80;81.90
14555;DHT22;7364;50.870;4.722;2023-07-08T00:23:57;22.80;82.60
14555;DHT22;7364;50.870;4.722;2023-07-08T00:26:27;22.90;83.60
14555;DHT22;7364;50.870;4.722;2023-07-08T00:28:58;22.90;83.10
14555;DHT22;7364;50.870;4.722;2023-07-08T00:31:26;22.90;82.80
14555;DHT22;7364;50.870;4.722;2023-07-08T00:34:01;22.90;82.70
14555;DHT22;7364;50.870;4.722;2023-07-08T00:36:31;22.80;82.30
14555;DHT22;7364;50.870;4.722;2023-07-08T00:38:59;23.00;82.20
14555;DHT22;7364;50.870;4.722;2023-07-08T00:41:32;23.00;81.90
14555;DHT22;7364;50.870;4.722;2023-07-08T00:44:01;23.00;81.40
14555;DHT22;7364;50.870;4.722;2023-07-08T00:46:37;23.00;80.70
14555;DHT22;7364;50.870;4.722;2023-07-08T00:49:29;23.00;80.60
14555;DHT22;7364;50.870;4.722;2023-07-08T00:52:21;22.50;82.90
14555;DHT22;7364;50.870;4.722;2023-07-08T00:54:51;22.20;84.80
14555;DHT22;7364;50.870;4.722;2023-07-08T00:57:25;22.10;85.70
14555;DHT22;7364;50.870;4.722;2023-07-08T00:59:58;22.00;86.90
14555;DHT22;7364;50.870;4.722;2023-07-08T01:02:33;21.90;87.70
14555;DHT22;7364;50.870;4.722;2023-07-08T01:05:11;22.00;88.50
14555;DHT22;7364;50.870;4.722;2023-07-08T01:07:45;21.90;88.70
14555;DHT22;7364;50.870;4.722;2023-07-08T01:10:20;21.90;89.10
14555;DHT22;7364;50.870;4.722;2023-07-08T01:12:57;22.00;88.60
14555;DHT22;7364;50.870;4.722;2023-07-08T01:15:31;21.80;89.40
14555;DHT22;7364;50.870;4.722;2023-07-08T01:18:01;21.90;89.50
14555;DHT22;7364;50.870;4.722;2023-07-08T01:20:39;21.90;89.80
14555;DHT22;7364;50.870;4.722;2023-07-08T01:23:13;21.90;89.70
14555;DHT22;7364;50.870;4.722;2023-07-08T01:25:43;21.80;90.10
14555;DHT22;7364;50.870;4.722;2023-07-08T01:28:14;21.60;90.70
14555;DHT22;7364;50.870;4.722;2023-07-08T01:30:43;21.60;91.10
14555;DHT22;7364;50.870;4.722;2023-07-08T01:33:17;21.60;91.10
14555;DHT22;7364;50.870;4.722;2023-07-08T01:35:48;21.70;91.10
14555;DHT22;7364;50.870;4.722;2023-07-08T01:38:25;21.80;91.10
14555;DHT22;7364;50.870;4.722;2023-07-08T01:40:57;21.90;90.90
14555;DHT22;7364;50.870;4.722;2023-07-08T01:43:26;22.00;90.70
14555;DHT22;7364;50.870;4.722;2023-07-08T01:45:57;21.90;90.90
14555;DHT22;7364;50.870;4.722;2023-07-08T01:48:33;21.80;91.20
14555;DHT22;7364;50.870;4.722;2023-07-08T01:51:07;21.80;91.50
14555;DHT22;7364;50.870;4.722;2023-07-08T01:53:47;21.80;91.60
14555;DHT22;7364;50.870;4.722;2023-07-08T01:56:17;21.70;91.90
14555;DHT22;7364;50.870;4.722;2023-07-08T01:58:46;21.70;92.00
14555;DHT22;7364;50.870;4.722;2023-07-08T02:01:14;21.70;92.00
14555;DHT22;7364;50.870;4.722;2023-07-08T02:03:42;21.50;92.70
14555;DHT22;7364;50.870;4.722;2023-07-08T02:06:12;21.30;93.10
14555;DHT22;7364;50.870;4.722;2023-07-08T02:08:42;21.20;93.50
14555;DHT22;7364;50.870;4.722;2023-07-08T02:11:11;21.20;93.80
14555;DHT22;7364;50.870;4.722;2023-07-08T02:13:39;21.10;94.00
14555;DHT22;7364;50.870;4.722;2023-07-08T02:16:07;21.10;94.20
14555;DHT22;7364;50.870;4.722;2023-07-08T02:18:36;21.20;94.30
14555;DHT22;7364;50.870;4.722;2023-07-08T02:21:04;21.30;94.20
14555;DHT22;7364;50.870;4.722;2023-07-08T02:23:32;21.30;94.10
14555;DHT22;7364;50.870;4.722;2023-07-08T02:26:03;21.20;94.40
14555;DHT22;7364;50.870;4.722;2023-07-08T02:28:31;21.10;94.70
14555;DHT22;7364;50.870;4.722;2023-07-08T02:31:02;20.90;95.40
14555;DHT22;7364;50.870;4.722;2023-07-08T02:33:30;20.90;95.80
14555;DHT22;7364;50.870;4.722;2023-07-08T02:35:59;21.10;96.00
14555;DHT22;7364;50.870;4.722;2023-07-08T02:38:29;21.10;95.70
14555;DHT22;7364;50.870;4.722;2023-07-08T02:40:57;20.90;95.90
14555;DHT22;7364;50.870;4.722;2023-07-08T02:43:28;20.70;96.60
14555;DHT22;7364;50.870;4.722;2023-07-08T02:45:59;20.60;97.40
14555;DHT22;7364;50.870;4.722;2023-07-08T02:48:29;20.60;98.00
14555;DHT22;7364;50.870;4.722;2023-07-08T02:51:01;20.80;98.30
14555;DHT22;7364;50.870;4.722;2023-07-08T02:53:31;20.90;98.30
14555;DHT22;7364;50.870;4.722;2023-07-08T02:56:01;21.00;98.30
14555;DHT22;7364;50.870;4.722;2023-07-08T02:58:30;21.10;98.50
14555;DHT22;7364;50.870;4.722;2023-07-08T03:01:01;21.20;99.10
14555;DHT22;7364;50.870;4.722;2023-07-08T03:03:29;21.20;99.00
14555;DHT22;7364;50.870;4.722;2023-07-08T03:06:01;21.20;98.80
14555;DHT22;7364;50.870;4.722;2023-07-08T03:08:29;21.20;98.50
14555;DHT22;7364;50.870;4.722;2023-07-08T03:11:00;21.20;98.30
14555;DHT22;7364;50.870;4.722;2023-07-08T03:13:32;21.30;97.90
14555;DHT22;7364;50.870;4.722;2023-07-08T03:16:02;21.20;97.80
14555;DHT22;7364;50.870;4.722;2023-07-08T03:18:34;21.20;97.90
14555;DHT22;7364;50.870;4.722;2023-07-08T03:21:05;21.20;98.10
14555;DHT22;7364;50.870;4.722;2023-07-08T03:23:33;21.20;98.20
14555;DHT22;7364;50.870;4.722;2023-07-08T03:26:02;21.30;97.90
14555;DHT22;7364;50.870;4.722;2023-07-08T03:28:32;21.30;97.80
14555;DHT22;7364;50.870;4.722;2023-07-08T03:31:01;21.20;97.80
14555;DHT22;7364;50.870;4.722;2023-07-08T03:33:29;20.80;98.80
14555;DHT22;7364;50.870;4.722;2023-07-08T03:35:58;20.70;99.60
14555;DHT22;7364;50.870;4.722;2023-07-08T03:38:30;20.70;99.60
14555;DHT22;7364;50.870;4.722;2023-07-08T03:41:01;20.80;99.60
14555;DHT22;7364;50.870;4.722;2023-07-08T03:43:33;20.90;99.50
14555;DHT22;7364;50.870;4.722;2023-07-08T03:46:01;21.00;99.30
14555;DHT22;7364;50.870;4.722;2023-07-08T03:48:29;21.00;99.20
14555;DHT22;7364;50.870;4.722;2023-07-08T03:50:59;20.80;99.40
14555;DHT22;7364;50.870;4.722;2023-07-08T03:53:28;20.80;99.70
14555;DHT22;7364;50.870;4.722;2023-07-08T03:55:58;20.70;99.90
14555;DHT22;7364;50.870;4.722;2023-07-08T03:58:26;20.80;99.90
14555;DHT22;7364;50.870;4.722;2023-07-08T04:00:56;21.00;99.60
14555;DHT22;7364;50.870;4.722;2023-07-08T04:03:26;20.90;99.40
14555;DHT22;7364;50.870;4.722;2023-07-08T04:05:55;20.60;99.90
14555;DHT22;7364;50.870;4.722;2023-07-08T04:08:25;20.60;99.90
14555;DHT22;7364;50.870;4.722;2023-07-08T04:10:53;20.70;99.90
14555;DHT22;7364;50.870;4.722;2023-07-08T04:13:22;20.90;99.90
14555;DHT22;7364;50.870;4.722;2023-07-08T04:15:58;20.70;99.90
14555;DHT22;7364;50.870;4.722;2023-07-08T04:18:26;20.50;99.90
14555;DHT22;7364;50.870;4.722;2023-07-08T04:20:54;20.50;99.90
14555;DHT22;7364;50.870;4.722;2023-07-08T04:23:25;20.70;99.90
14555;DHT22;7364;50.870;4.722;2023-07-08T04:25:54;20.50;99.90
14555;DHT22;7364;50.870;4.722;2023-07-08T04:28:24;20.50;99.90
14555;DHT22;7364;50.870;4.722;2023-07-08T04:30:53;20.50;99.90
14555;DHT22;7364;50.870;4.722;2023-07-08T04:33:23;20.60;99.90
14555;DHT22;7364;50.870;4.722;2023-07-08T04:35:51;20.80;99.90
14555;DHT22;7364;50.870;4.722;2023-07-08T04:38:23;20.80;99.90
14555;DHT22;7364;50.870;4.722;2023-07-08T04:40:52;20.90;99.90
14555;DHT22;7364;50.870;4.722;2023-07-08T04:43:21;21.00;99.90
14555;DHT22;7364;50.870;4.722;2023-07-08T04:45:57;20.70;99.90
14555;DHT22;7364;50.870;4.722;2023-07-08T04:48:27;20.60;99.90
14555;DHT22;7364;50.870;4.722;2023-07-08T04:50:56;20.70;99.90
14555;DHT22;7364;50.870;4.722;2023-07-08T04:53:25;20.80;99.90
14555;DHT22;7364;50.870;4.722;2023-07-08T04:55:55;20.80;99.90
14555;DHT22;7364;50.870;4.722;2023-07-08T04:58:25;20.70;99.90
14555;DHT22;7364;50.870;4.722;2023-07-08T05:00:53;20.80;99.90
14555;DHT22;7364;50.870;4.722;2023-07-08T05:03:22;20.80;99.90
14555;DHT22;7364;50.870;4.722;2023-07-08T05:05:51;20.80;99.90
14555;DHT22;7364;50.870;4.722;2023-07-08T05:08:22;20.80;99.90
14555;DHT22;7364;50.870;4.722;2023-07-08T05:10:51;20.90;99.90
14555;DHT22;7364;50.870;4.722;2023-07-08T05:13:20;21.00;99.90
14555;DHT22;7364;50.870;4.722;2023-07-08T05:15:49;21.00;99.90
14555;DHT22;7364;50.870;4.722;2023-07-08T05:18:16;21.10;99.90
14555;DHT22;7364;50.870;4.722;2023-07-08T05:20:52;21.10;99.90
14555;DHT22;7364;50.870;4.722;2023-07-08T05:23:21;21.20;99.80
14555;DHT22;7364;50.870;4.722;2023-07-08T05:25:50;21.30;99.80
14555;DHT22;7364;50.870;4.722;2023-07-08T05:28:18;21.40;99.50
14555;DHT22;7364;50.870;4.722;2023-07-08T05:30:53;21.40;99.40
14555;DHT22;7364;50.870;4.722;2023-07-08T05:33:24;21.60;98.70
14555;DHT22;7364;50.870;4.722;2023-07-08T05:35:55;21.70;98.00
14555;DHT22;7364;50.870;4.722;2023-07-08T05:38:25;21.90;97.70
14555;DHT22;7364;50.870;4.722;2023-07-08T05:40:55;22.00;96.80
14555;DHT22;7364;50.870;4.722;2023-07-08T05:43:25;22.10;96.70
14555;DHT22;7364;50.870;4.722;2023-07-08T05:46:01;22.30;96.20
14555;DHT22;7364;50.870;4.722;2023-07-08T05:48:31;22.30;95.90
14555;DHT22;7364;50.870;4.722;2023-07-08T05:51:01;22.30;95.90
14555;DHT22;7364;50.870;4.722;2023-07-08T05:53:29;22.30;95.60
14555;DHT22;7364;50.870;4.722;2023-07-08T05:55:58;22.50;95.30
14555;DHT22;7364;50.870;4.722;2023-07-08T06:01:48;22.70;94.20
14555;DHT22;7364;50.870;4.722;2023-07-08T06:04:34;22.70;94.10
14555;DHT22;7364;50.870;4.722;2023-07-08T06:07:04;22.70;94.10
14555;DHT22;7364;50.870;4.722;2023-07-08T06:09:35;22.70;94.10
14555;DHT22;7364;50.870;4.722;2023-07-08T06:12:06;22.70;94.20
14555;DHT22;7364;50.870;4.722;2023-07-08T06:14:34;22.80;94.00
14555;DHT22;7364;50.870;4.722;2023-07-08T06:17:03;22.80;94.00
14555;DHT22;7364;50.870;4.722;2023-07-08T06:19:32;22.90;93.80
14555;DHT22;7364;50.870;4.722;2023-07-08T06:22:03;22.90;93.80
14555;DHT22;7364;50.870;4.722;2023-07-08T06:24:32;23.10;93.90
14555;DHT22;7364;50.870;4.722;2023-07-08T06:27:01;23.00;94.00
14555;DHT22;7364;50.870;4.722;2023-07-08T06:29:29;23.20;94.10
14555;DHT22;7364;50.870;4.722;2023-07-08T06:32:00;23.30;93.90
14555;DHT22;7364;50.870;4.722;2023-07-08T06:34:29;23.40;93.60
14555;DHT22;7364;50.870;4.722;2023-07-08T06:36:56;23.50;93.40
14555;DHT22;7364;50.870;4.722;2023-07-08T06:39:26;23.40;93.50
14555;DHT22;7364;50.870;4.722;2023-07-08T06:41:55;23.50;93.10
14555;DHT22;7364;50.870;4.722;2023-07-08T06:44:27;23.60;92.40
14555;DHT22;7364;50.870;4.722;2023-07-08T06:46:55;23.80;92.20
14555;DHT22;7364;50.870;4.722;2023-07-08T06:49:37;24.00;91.40
14555;DHT22;7364;50.870;4.722;2023-07-08T06:52:19;24.20;91.20
14555;DHT22;7364;50.870;4.722;2023-07-08T06:54:51;24.10;91.30
14555;DHT22;7364;50.870;4.722;2023-07-08T06:57:20;24.20;91.60
14555;DHT22;7364;50.870;4.722;2023-07-08T06:59:48;24.00;92.40
14555;DHT22;7364;50.870;4.722;2023-07-08T07:02:16;24.00;92.60
14555;DHT22;7364;50.870;4.722;2023-07-08T07:04:45;23.90;92.60
14555;DHT22;7364;50.870;4.722;2023-07-08T07:07:14;24.10;92.40
14555;DHT22;7364;50.870;4.722;2023-07-08T07:09:42;24.10;92.30
14555;DHT22;7364;50.870;4.722;2023-07-08T07:12:12;24.40;92.20
14555;DHT22;7364;50.870;4.722;2023-07-08T07:14:49;24.70;92.00
14555;DHT22;7364;50.870;4.722;2023-07-08T07:17:30;24.70;92.00
14555;DHT22;7364;50.870;4.722;2023-07-08T07:20:02;24.90;91.70
14555;DHT22;7364;50.870;4.722;2023-07-08T07:22:43;24.90;91.40
14555;DHT22;7364;50.870;4.722;2023-07-08T07:25:25;25.00;91.10
14555;DHT22;7364;50.870;4.722;2023-07-08T07:28:05;25.10;90.70
14555;DHT22;7364;50.870;4.722;2023-07-08T07:31:15;25.00;90.60
14555;DHT22;7364;50.870;4.722;2023-07-08T07:33:43;25.50;90.20
14555;DHT22;7364;50.870;4.722;2023-07-08T07:36:13;25.30;90.10
14555;DHT22;7364;50.870;4.722;2023-07-08T07:38:42;25.20;90.30
14555;DHT22;7364;50.870;4.722;2023-07-08T07:41:11;25.50;89.20
14555;DHT22;7364;50.870;4.722;2023-07-08T07:43:57;25.60;88.90
14555;DHT22;7364;50.870;4.722;2023-07-08T07:46:38;25.60;89.90
14555;DHT22;7364;50.870;4.722;2023-07-08T07:49:08;25.50;90.20
14555;DHT22;7364;50.870;4.722;2023-07-08T07:51:42;25.60;90.00
14555;DHT22;7364;50.870;4.722;2023-07-08T07:54:11;26.00;89.10
14555;DHT22;7364;50.870;4.722;2023-07-08T07:56:44;26.20;88.10
14555;DHT22;7364;50.870;4.722;2023-07-08T07:59:16;26.30;87.60
14555;DHT22;7364;50.870;4.722;2023-07-08T08:01:44;26.10;87.60
14555;DHT22;7364;50.870;4.722;2023-07-08T08:04:17;25.90;88.20
14555;DHT22;7364;50.870;4.722;2023-07-08T08:06:55;26.10;88.50
14555;DHT22;7364;50.870;4.722;2023-07-08T08:09:39;26.30;87.20
14555;DHT22;7364;50.870;4.722;2023-07-08T08:12:21;26.60;86.30
14555;DHT22;7364;50.870;4.722;2023-07-08T08:17:57;26.60;85.00
14555;DHT22;7364;50.870;4.722;2023-07-08T08:20:25;26.40;86.10
14555;DHT22;7364;50.870;4.722;2023-07-08T08:23:06;26.70;85.90
14555;DHT22;7364;50.870;4.722;2023-07-08T08:25:49;26.80;84.00
14555;DHT22;7364;50.870;4.722;2023-07-08T08:28:33;27.00;81.80
14555;DHT22;7364;50.870;4.722;2023-07-08T08:31:07;26.80;81.30
14555;DHT22;7364;50.870;4.722;2023-07-08T08:33:58;26.70;81.80
14555;DHT22;7364;50.870;4.722;2023-07-08T08:36:29;26.70;82.50
14555;DHT22;7364;50.870;4.722;2023-07-08T08:39:11;26.80;82.20
14555;DHT22;7364;50.870;4.722;2023-07-08T08:41:41;26.80;82.80
14555;DHT22;7364;50.870;4.722;2023-07-08T08:44:15;27.00;82.70
14555;DHT22;7364;50.870;4.722;2023-07-08T08:46:56;27.10;82.80
14555;DHT22;7364;50.870;4.722;2023-07-08T08:49:35;27.10;83.10
14555;DHT22;7364;50.870;4.722;2023-07-08T08:52:06;27.40;81.80
14555;DHT22;7364;50.870;4.722;2023-07-08T08:54:36;27.40;81.20
14555;DHT22;7364;50.870;4.722;2023-07-08T08:57:27;27.40;81.30
14555;DHT22;7364;50.870;4.722;2023-07-08T09:00:00;27.80;80.50
14555;DHT22;7364;50.870;4.722;2023-07-08T09:02:33;27.60;80.60
14555;DHT22;7364;50.870;4.722;2023-07-08T09:05:09;27.60;80.50
14555;DHT22;7364;50.870;4.722;2023-07-08T09:07:44;28.00;79.50
14555;DHT22;7364;50.870;4.722;2023-07-08T09:10:21;28.00;78.90
14555;DHT22;7364;50.870;4.722;2023-07-08T09:12:56;27.60;78.00
14555;DHT22;7364;50.870;4.722;2023-07-08T09:15:27;27.60;79.20
14555;DHT22;7364;50.870;4.722;2023-07-08T09:18:00;27.60;78.50
14555;DHT22;7364;50.870;4.722;2023-07-08T09:20:33;27.50;79.40
14555;DHT22;7364;50.870;4.722;2023-07-08T09:23:07;27.60;78.80
14555;DHT22;7364;50.870;4.722;2023-07-08T09:25:43;27.40;78.40
14555;DHT22;7364;50.870;4.722;2023-07-08T09:28:15;27.50;78.90
14555;DHT22;7364;50.870;4.722;2023-07-08T09:30:47;27.90;77.60
14555;DHT22;7364;50.870;4.722;2023-07-08T09:33:16;27.90;77.60
14555;DHT22;7364;50.870;4.722;2023-07-08T09:35:47;27.80;76.60
14555;DHT22;7364;50.870;4.722;2023-07-08T09:38:21;27.80;77.20
14555;DHT22;7364;50.870;4.722;2023-07-08T09:40:52;28.20;76.10
14555;DHT22;7364;50.870;4.722;2023-07-08T09:43:25;28.10;76.00
14555;DHT22;7364;50.870;4.722;2023-07-08T09:45:58;28.20;76.10
14555;DHT22;7364;50.870;4.722;2023-07-08T09:48:29;28.70;74.80
14555;DHT22;7364;50.870;4.722;2023-07-08T09:51:04;28.30;73.90
14555;DHT22;7364;50.870;4.722;2023-07-08T09:53:35;28.20;74.80
14555;DHT22;7364;50.870;4.722;2023-07-08T09:56:04;28.10;75.30
14555;DHT22;7364;50.870;4.722;2023-07-08T09:58:35;28.10;74.30
14555;DHT22;7364;50.870;4.722;2023-07-08T10:01:11;28.60;73.50
14555;DHT22;7364;50.870;4.722;2023-07-08T10:03:41;28.90;72.50
14555;DHT22;7364;50.870;4.722;2023-07-08T10:06:18;29.00;72.40
14555;DHT22;7364;50.870;4.722;2023-07-08T10:08:47;29.10;70.40
14555;DHT22;7364;50.870;4.722;2023-07-08T10:11:25;29.00;71.50
14555;DHT22;7364;50.870;4.722;2023-07-08T10:13:56;29.10;71.00
14555;DHT22;7364;50.870;4.722;2023-07-08T10:16:28;29.40;69.80
14555;DHT22;7364;50.870;4.722;2023-07-08T10:18:57;29.30;68.10
14555;DHT22;7364;50.870;4.722;2023-07-08T10:21:43;29.00;68.50
14555;DHT22;7364;50.870;4.722;2023-07-08T10:24:25;29.30;69.20
14555;DHT22;7364;50.870;4.722;2023-07-08T10:26:59;29.80;66.60
14555;DHT22;7364;50.870;4.722;2023-07-08T10:29:36;29.60;66.90
14555;DHT22;7364;50.870;4.722;2023-07-08T10:32:17;30.00;67.10
14555;DHT22;7364;50.870;4.722;2023-07-08T10:34:55;29.70;69.60
14555;DHT22;7364;50.870;4.722;2023-07-08T10:37:34;29.80;70.80
14555;DHT22;7364;50.870;4.722;2023-07-08T10:40:30;30.30;69.40
14555;DHT22;7364;50.870;4.722;2023-07-08T10:43:25;30.40;67.60
14555;DHT22;7364;50.870;4.722;2023-07-08T10:46:06;30.80;65.80
14555;DHT22;7364;50.870;4.722;2023-07-08T10:48:54;30.70;63.70
14555;DHT22;7364;50.870;4.722;2023-07-08T10:51:33;31.10;63.90
14555;DHT22;7364;50.870;4.722;2023-07-08T10:54:24;31.40;63.70
14555;DHT22;7364;50.870;4.722;2023-07-08T10:57:07;32.40;61.60
14555;DHT22;7364;50.870;4.722;2023-07-08T10:59:45;33.10;59.40
14555;DHT22;7364;50.870;4.722;2023-07-08T11:02:47;32.60;58.60
14555;DHT22;7364;50.870;4.722;2023-07-08T11:05:30;32.20;58.00
14555;DHT22;7364;50.870;4.722;2023-07-08T11:08:03;33.20;57.60
14555;DHT22;7364;50.870;4.722;2023-07-08T11:10:40;34.60;55.90
14555;DHT22;7364;50.870;4.722;2023-07-08T11:13:16;35.70;53.30
14555;DHT22;7364;50.870;4.722;2023-07-08T11:15:50;36.20;52.40
14555;DHT22;7364;50.870;4.722;2023-07-08T11:18:27;35.90;52.20
14555;DHT22;7364;50.870;4.722;2023-07-08T11:21:00;36.60;52.10
14555;DHT22;7364;50.870;4.722;2023-07-08T11:23:36;36.80;51.30
14555;DHT22;7364;50.870;4.722;2023-07-08T11:26:22;37.60;51.10
14555;DHT22;7364;50.870;4.722;2023-07-08T11:28:57;38.40;49.70
14555;DHT22;7364;50.870;4.722;2023-07-08T11:31:32;39.00;48.90
14555;DHT22;7364;50.870;4.722;2023-07-08T11:34:02;39.50;47.50
14555;DHT22;7364;50.870;4.722;2023-07-08T11:36:35;39.40;47.90
14555;DHT22;7364;50.870;4.722;2023-07-08T11:39:27;39.80;47.30
14555;DHT22;7364;50.870;4.722;2023-07-08T11:42:15;41.00;46.00
14555;DHT22;7364;50.870;4.722;2023-07-08T11:44:48;39.50;46.10
14555;DHT22;7364;50.870;4.722;2023-07-08T11:47:24;39.30;46.50
14555;DHT22;7364;50.870;4.722;2023-07-08T11:49:54;39.60;46.00
14555;DHT22;7364;50.870;4.722;2023-07-08T11:52:24;40.20;45.20
14555;DHT22;7364;50.870;4.722;2023-07-08T11:54:59;40.20;44.50
14555;DHT22;7364;50.870;4.722;2023-07-08T11:57:40;40.80;44.90
14555;DHT22;7364;50.870;4.722;2023-07-08T12:00:16;41.80;43.70
14555;DHT22;7364;50.870;4.722;2023-07-08T12:02:51;43.40;41.30
14555;DHT22;7364;50.870;4.722;2023-07-08T12:05:33;44.00;40.00
14555;DHT22;7364;50.870;4.722;2023-07-08T12:08:03;44.10;39.30
14555;DHT22;7364;50.870;4.722;2023-07-08T12:10:41;44.60;38.40
14555;DHT22;7364;50.870;4.722;2023-07-08T12:13:14;45.10;37.80
14555;DHT22;7364;50.870;4.722;2023-07-08T12:15:42;45.00;37.80
14555;DHT22;7364;50.870;4.722;2023-07-08T12:18:14;45.60;37.20
14555;DHT22;7364;50.870;4.722;2023-07-08T12:20:46;45.90;37.10
14555;DHT22;7364;50.870;4.722;2023-07-08T12:23:18;46.40;36.00
14555;DHT22;7364;50.870;4.722;2023-07-08T12:25:48;46.60;35.70
14555;DHT22;7364;50.870;4.722;2023-07-08T12:28:18;46.60;35.60
14555;DHT22;7364;50.870;4.722;2023-07-08T12:30:47;47.40;35.20
14555;DHT22;7364;50.870;4.722;2023-07-08T12:33:21;46.10;34.30
14555;DHT22;7364;50.870;4.722;2023-07-08T12:35:51;46.80;34.40
14555;DHT22;7364;50.870;4.722;2023-07-08T12:38:26;47.50;34.10
14555;DHT22;7364;50.870;4.722;2023-07-08T12:40:56;46.40;34.50
14555;DHT22;7364;50.870;4.722;2023-07-08T12:43:27;46.30;34.90
14555;DHT22;7364;50.870;4.722;2023-07-08T12:45:57;43.00;36.90
14555;DHT22;7364;50.870;4.722;2023-07-08T12:48:31;41.30;39.70
14555;DHT22;7364;50.870;4.722;2023-07-08T12:51:02;40.50;41.00
14555;DHT22;7364;50.870;4.722;2023-07-08T12:53:31;39.60;42.80
14555;DHT22;7364;50.870;4.722;2023-07-08T12:56:01;38.00;45.00
14555;DHT22;7364;50.870;4.722;2023-07-08T12:58:34;36.30;49.70
14555;DHT22;7364;50.870;4.722;2023-07-08T13:01:07;35.00;52.20
14555;DHT22;7364;50.870;4.722;2023-07-08T13:03:40;34.60;53.70
14555;DHT22;7364;50.870;4.722;2023-07-08T13:06:12;34.00;52.10
14555;DHT22;7364;50.870;4.722;2023-07-08T13:08:42;33.90;52.90
14555;DHT22;7364;50.870;4.722;2023-07-08T13:11:13;33.60;52.00
14555;DHT22;7364;50.870;4.722;2023-07-08T13:13:49;32.90;52.80
14555;DHT22;7364;50.870;4.722;2023-07-08T13:16:18;32.50;54.40
14555;DHT22;7364;50.870;4.722;2023-07-08T13:18:48;32.10;58.70
14555;DHT22;7364;50.870;4.722;2023-07-08T13:21:17;31.80;55.70
14555;DHT22;7364;50.870;4.722;2023-07-08T13:23:47;31.40;59.60
14555;DHT22;7364;50.870;4.722;2023-07-08T13:26:18;31.10;68.20
14555;DHT22;7364;50.870;4.722;2023-07-08T13:29:00;30.90;68.60
14555;DHT22;7364;50.870;4.722;2023-07-08T13:31:37;30.50;92.90
14555;DHT22;7364;50.870;4.722;2023-07-08T13:34:08;29.90;94.40
14555;DHT22;7364;50.870;4.722;2023-07-08T13:36:39;29.60;91.50
14555;DHT22;7364;50.870;4.722;2023-07-08T13:39:13;29.50;85.60
14555;DHT22;7364;50.870;4.722;2023-07-08T13:41:45;29.70;83.10
14555;DHT22;7364;50.870;4.722;2023-07-08T13:44:17;30.40;78.40
14555;DHT22;7364;50.870;4.722;2023-07-08T13:46:52;31.40;73.80
14555;DHT22;7364;50.870;4.722;2023-07-08T13:49:24;32.30;71.90
14555;DHT22;7364;50.870;4.722;2023-07-08T13:52:06;33.00;69.40
14555;DHT22;7364;50.870;4.722;2023-07-08T13:54:41;33.60;68.70
14555;DHT22;7364;50.870;4.722;2023-07-08T13:57:15;33.90;67.10
14555;DHT22;7364;50.870;4.722;2023-07-08T13:59:45;33.90;64.20
14555;DHT22;7364;50.870;4.722;2023-07-08T14:02:18;34.10;65.10
14555;DHT22;7364;50.870;4.722;2023-07-08T14:04:50;34.20;65.50
14555;DHT22;7364;50.870;4.722;2023-07-08T14:07:21;34.70;63.60
14555;DHT22;7364;50.870;4.722;2023-07-08T14:09:50;35.00;63.50
14555;DHT22;7364;50.870;4.722;2023-07-08T14:12:19;35.20;63.00
14555;DHT22;7364;50.870;4.722;2023-07-08T14:14:49;35.00;64.40
14555;DHT22;7364;50.870;4.722;2023-07-08T14:17:21;34.80;65.20
14555;DHT22;7364;50.870;4.722;2023-07-08T14:19:51;34.80;65.90
14555;DHT22;7364;50.870;4.722;2023-07-08T14:22:25;33.00;64.60
14555;DHT22;7364;50.870;4.722;2023-07-08T14:24:54;31.60;70.30
14555;DHT22;7364;50.870;4.722;2023-07-08T14:27:23;31.10;72.20
14555;DHT22;7364;50.870;4.722;2023-07-08T14:29:53;31.30;71.70
14555;DHT22;7364;50.870;4.722;2023-07-08T14:32:23;31.70;68.90
14555;DHT22;7364;50.870;4.722;2023-07-08T14:34:55;32.10;68.80
14555;DHT22;7364;50.870;4.722;2023-07-08T14:37:24;32.60;64.20
14555;DHT22;7364;50.870;4.722;2023-07-08T14:39:54;32.80;62.80
14555;DHT22;7364;50.870;4.722;2023-07-08T14:42:22;33.30;62.60
14555;DHT22;7364;50.870;4.722;2023-07-08T14:44:52;33.90;60.10
14555;DHT22;7364;50.870;4.722;2023-07-08T14:47:22;34.50;58.60
14555;DHT22;7364;50.870;4.722;2023-07-08T14:49:50;35.20;56.20
14555;DHT22;7364;50.870;4.722;2023-07-08T14:52:20;36.10;54.70
14555;DHT22;7364;50.870;4.722;2023-07-08T14:54:48;38.10;52.20
14555;DHT22;7364;50.870;4.722;2023-07-08T14:57:16;40.90;48.30
14555;DHT22;7364;50.870;4.722;2023-07-08T14:59:44;43.70;45.30
14555;DHT22;7364;50.870;4.722;2023-07-08T15:02:20;45.90;41.30
14555;DHT22;7364;50.870;4.722;2023-07-08T15:04:49;47.70;39.40
14555;DHT22;7364;50.870;4.722;2023-07-08T15:07:19;47.90;34.90
14555;DHT22;7364;50.870;4.722;2023-07-08T15:09:47;48.20;34.90
14555;DHT22;7364;50.870;4.722;2023-07-08T15:12:16;48.90;34.70
14555;DHT22;7364;50.870;4.722;2023-07-08T15:14:44;49.80;33.10
14555;DHT22;7364;50.870;4.722;2023-07-08T15:17:14;50.70;32.10
14555;DHT22;7364;50.870;4.722;2023-07-08T15:19:44;51.10;31.30
14555;DHT22;7364;50.870;4.722;2023-07-08T15:22:12;48.00;32.20
14555;DHT22;7364;50.870;4.722;2023-07-08T15:24:42;46.50;33.80
14555;DHT22;7364;50.870;4.722;2023-07-08T15:27:11;44.00;36.90
14555;DHT22;7364;50.870;4.722;2023-07-08T15:29:41;44.30;37.00
14555;DHT22;7364;50.870;4.722;2023-07-08T15:32:12;43.60;38.10
14555;DHT22;7364;50.870;4.722;2023-07-08T15:34:45;43.10;39.10
14555;DHT22;7364;50.870;4.722;2023-07-08T15:37:14;41.10;41.20
14555;DHT22;7364;50.870;4.722;2023-07-08T15:39:43;41.10;42.00
14555;DHT22;7364;50.870;4.722;2023-07-08T15:42:12;40.70;42.60
14555;DHT22;7364;50.870;4.722;2023-07-08T15:44:42;40.50;43.70
14555;DHT22;7364;50.870;4.722;2023-07-08T15:47:13;40.10;44.00
14555;DHT22;7364;50.870;4.722;2023-07-08T15:49:43;39.60;45.70
14555;DHT22;7364;50.870;4.722;2023-07-08T15:52:12;39.50;46.20
14555;DHT22;7364;50.870;4.722;2023-07-08T15:54:41;39.30;47.00
14555;DHT22;7364;50.870;4.722;2023-07-08T15:57:11;39.30;46.80
14555;DHT22;7364;50.870;4.722;2023-07-08T15:59:42;39.40;47.20
14555;DHT22;7364;50.870;4.722;2023-07-08T16:02:24;39.70;46.90
14555;DHT22;7364;50.870;4.722;2023-07-08T16:04:52;39.90;47.00
14555;DHT22;7364;50.870;4.722;2023-07-08T16:07:23;40.20;46.70
14555;DHT22;7364;50.870;4.722;2023-07-08T16:09:51;40.50;45.80
14555;DHT22;7364;50.870;4.722;2023-07-08T16:12:22;40.60;45.80
14555;DHT22;7364;50.870;4.722;2023-07-08T16:14:51;39.80;46.80
14555;DHT22;7364;50.870;4.722;2023-07-08T16:17:21;39.60;47.30
14555;DHT22;7364;50.870;4.722;2023-07-08T16:19:51;39.30;47.60
14555;DHT22;7364;50.870;4.722;2023-07-08T16:22:23;39.10;48.20
14555;DHT22;7364;50.870;4.722;2023-07-08T16:24:52;39.00;48.40